Time;durP1;ratioP1;P1;durP2;ratioP2;P2;SDS_P1;SDS_P2;PMS_P1;PMS_P2;Temp;Humidity;BMP_temperature;BMP_pressure;BME280_temperature;BME280_humidity;BME280_pressure;Samples;Min_cycle;Max_cycle;Signal;HPM_P1;HPM_P2
2023/03/09 00:00:38;;;;;;;0.67;0.67;;;16.70;61.60;;;;;;4968516;28;43429;-79
2023/03/09 00:03:15;;;;;;;0.83;0.83;;;16.70;61.70;;;;;;4983205;28;43681;-76
2023/03/09 00:05:44;;;;;;;0.80;0.80;;;16.70;61.90;;;;;;4988539;28;43610;-79
2023/03/09 00:08:11;;;;;;;0.70;0.70;;;16.70;62.10;;;;;;4971154;28;44927;-79
2023/03/09 00:10:42;;;;;;;0.80;0.80;;;16.70;62.10;;;;;;4993382;28;43943;-77
2023/03/09 00:13:11;;;;;;;0.70;0.70;;;16.70;62.00;;;;;;4988847;28;43417;-77
2023/03/09 00:15:39;;;;;;;0.60;0.60;;;16.60;62.00;;;;;;4988489;28;43952;-78
2023/03/09 00:18:07;;;;;;;0.60;0.60;;;16.60;62.10;;;;;;4969760;28;45014;-79
2023/03/09 00:20:35;;;;;;;0.60;0.60;;;16.60;62.20;;;;;;4988610;28;44141;-79
2023/03/09 00:23:10;;;;;;;0.77;0.77;;;16.60;62.30;;;;;;4971537;28;43618;-79
2023/03/09 00:25:38;;;;;;;0.80;0.80;;;16.50;62.40;;;;;;4986649;28;43965;-77
2023/03/09 00:28:06;;;;;;;0.80;0.80;;;16.50;62.20;;;;;;4988495;28;43823;-77
2023/03/09 00:30:36;;;;;;;0.70;0.70;;;16.60;62.40;;;;;;4970806;28;43431;-78
2023/03/09 00:33:04;;;;;;;0.80;0.80;;;16.60;62.40;;;;;;4971341;28;43406;-78
2023/03/09 00:35:32;;;;;;;0.70;0.70;;;16.50;62.30;;;;;;4988054;28;43814;-77
2023/03/09 00:38:00;;;;;;;0.70;0.70;;;16.50;62.40;;;;;;4987869;28;43487;-76
2023/03/09 00:40:28;;;;;;;0.50;0.50;;;16.50;62.50;;;;;;4970813;28;43434;-73
2023/03/09 00:42:58;;;;;;;0.67;0.67;;;16.50;62.50;;;;;;4971222;28;43578;-75
2023/03/09 00:45:26;;;;;;;0.60;0.60;;;16.60;62.30;;;;;;4970387;28;45832;-77
2023/03/09 00:47:55;;;;;;;0.53;0.53;;;16.70;62.00;;;;;;4974029;28;44887;-78
2023/03/09 00:50:26;;;;;;;0.63;0.63;;;16.80;61.80;;;;;;4988583;28;43416;-77
2023/03/09 00:52:54;;;;;;;0.60;0.60;;;16.80;61.80;;;;;;4988440;28;43638;-79
2023/03/09 00:55:22;;;;;;;0.70;0.70;;;16.70;61.90;;;;;;4970273;28;43960;-77
2023/03/09 00:57:50;;;;;;;0.60;0.60;;;16.70;62.00;;;;;;4970162;28;45038;-78
2023/03/09 01:00:18;;;;;;;0.50;0.50;;;16.70;62.00;;;;;;4970061;28;44073;-76
2023/03/09 01:02:46;;;;;;;0.73;0.73;;;16.70;62.00;;;;;;4970663;28;43591;-79
2023/03/09 01:05:15;;;;;;;0.63;0.63;;;16.70;62.10;;;;;;4987698;28;43927;-78
2023/03/09 01:07:43;;;;;;;0.70;0.70;;;16.60;62.10;;;;;;4970090;28;45000;-78
2023/03/09 01:10:12;;;;;;;0.60;0.60;;;16.60;62.20;;;;;;4971653;28;43362;-78
2023/03/09 01:12:40;;;;;;;0.70;0.70;;;16.60;62.30;;;;;;4988122;28;43472;-77
2023/03/09 01:15:09;;;;;;;0.60;0.60;;;16.60;62.40;;;;;;4970360;28;45992;-79
2023/03/09 01:17:37;;;;;;;0.60;0.60;;;16.50;62.40;;;;;;4985279;28;43382;-76
2023/03/09 01:20:06;;;;;;;0.57;0.57;;;16.50;62.40;;;;;;4987615;28;43385;-76
2023/03/09 01:22:36;;;;;;;0.67;0.67;;;16.50;62.50;;;;;;4987591;28;43581;-80
2023/03/09 01:25:04;;;;;;;0.60;0.60;;;16.50;62.60;;;;;;4987422;28;43843;-78
2023/03/09 01:27:32;;;;;;;0.80;0.80;;;16.50;62.60;;;;;;4969560;28;44731;-78
2023/03/09 01:30:01;;;;;;;0.60;0.60;;;16.60;62.50;;;;;;4970154;28;43440;-79
2023/03/09 01:32:29;;;;;;;0.60;0.60;;;16.80;62.20;;;;;;4970308;28;43455;-77
2023/03/09 01:34:57;;;;;;;0.60;0.60;;;16.90;61.80;;;;;;4969915;28;45907;-78
2023/03/09 01:37:26;;;;;;;0.67;0.67;;;17.10;61.40;;;;;;4969904;28;45703;-77
2023/03/09 01:39:55;;;;;;;0.60;0.60;;;17.20;60.90;;;;;;4987830;28;43482;-77
2023/03/09 01:42:23;;;;;;;0.60;0.60;;;17.40;60.70;;;;;;4987360;28;43520;-79
2023/03/09 01:45:27;;;;;;;0.50;0.50;;;17.50;60.10;;;;;;4987574;28;44054;-78
2023/03/09 01:47:57;;;;;;;0.60;0.60;;;17.60;59.80;;;;;;4983558;28;43462;-77
2023/03/09 01:50:27;;;;;;;0.60;0.60;;;17.70;59.60;;;;;;4975009;28;43366;-79
2023/03/09 01:52:55;;;;;;;0.60;0.60;;;17.80;59.40;;;;;;4969594;28;43865;-78
2023/03/09 01:55:26;;;;;;;0.50;0.50;;;17.80;59.20;;;;;;4969465;28;45796;-79
2023/03/09 01:58:01;;;;;;;0.40;0.40;;;17.80;59.20;;;;;;4969119;28;44555;-78
2023/03/09 02:00:29;;;;;;;0.60;0.60;;;17.70;59.40;;;;;;4970198;28;44035;-77
2023/03/09 02:03:06;;;;;;;0.50;0.50;;;17.50;59.50;;;;;;4971994;28;43637;-79
2023/03/09 02:05:37;;;;;;;0.47;0.47;;;17.40;59.90;;;;;;4969473;28;46011;-79
2023/03/09 02:08:05;;;;;;;0.50;0.50;;;17.30;60.60;;;;;;4962877;28;44466;-77
2023/03/09 02:10:37;;;;;;;0.60;0.60;;;17.20;60.70;;;;;;4974425;28;43471;-79
2023/03/09 02:13:08;;;;;;;0.40;0.40;;;17.20;60.80;;;;;;4969725;28;43421;-77
2023/03/09 02:15:36;;;;;;;0.40;0.40;;;17.10;60.90;;;;;;4969476;28;43996;-79
2023/03/09 02:18:06;;;;;;;0.40;0.40;;;17.00;61.10;;;;;;4969050;28;43935;-76
2023/03/09 02:20:38;;;;;;;0.60;0.60;;;16.90;61.30;;;;;;4968579;28;43418;-79
2023/03/09 02:23:06;;;;;;;0.43;0.43;;;16.80;61.70;;;;;;4969543;28;43506;-79
2023/03/09 02:25:37;;;;;;;0.43;0.43;;;16.80;61.70;;;;;;4968611;28;45760;-78
2023/03/09 02:28:10;;;;;;;0.63;0.63;;;16.80;61.70;;;;;;4968404;28;43421;-79
2023/03/09 02:30:40;;;;;;;0.50;0.50;;;16.80;61.80;;;;;;4971711;28;43486;-78
2023/03/09 02:33:11;;;;;;;0.53;0.53;;;16.80;61.90;;;;;;4986952;28;43945;-78
2023/03/09 02:35:41;;;;;;;0.40;0.40;;;16.70;61.90;;;;;;4986235;28;43863;-79
2023/03/09 02:38:11;;;;;;;0.40;0.40;;;16.70;62.20;;;;;;4968900;28;44982;-78
2023/03/09 02:40:39;;;;;;;0.60;0.60;;;16.70;62.30;;;;;;4986757;28;43448;-77
2023/03/09 02:43:15;;;;;;;0.60;0.60;;;16.80;62.20;;;;;;4971677;28;43444;-79
2023/03/09 02:45:44;;;;;;;0.50;0.50;;;16.90;61.80;;;;;;4968391;28;44806;-78
2023/03/09 02:48:12;;;;;;;0.50;0.50;;;17.00;61.50;;;;;;4972090;28;44416;-78
2023/03/09 02:50:40;;;;;;;0.43;0.43;;;16.90;61.30;;;;;;4968862;28;43345;-78
2023/03/09 02:53:08;;;;;;;0.60;0.60;;;16.90;61.70;;;;;;4969072;28;43700;-78
2023/03/09 02:55:36;;;;;;;0.40;0.40;;;16.90;61.90;;;;;;4968636;28;45997;-79
2023/03/09 02:58:07;;;;;;;0.60;0.60;;;16.90;61.70;;;;;;4967575;28;44396;-78
2023/03/09 03:00:37;;;;;;;0.40;0.40;;;16.80;61.60;;;;;;4990028;28;43468;-77
2023/03/09 03:03:05;;;;;;;0.60;0.60;;;16.80;61.70;;;;;;4986707;28;43966;-79
2023/03/09 03:05:32;;;;;;;0.40;0.40;;;16.80;61.90;;;;;;4986510;28;43936;-78
2023/03/09 03:08:01;;;;;;;0.40;0.40;;;16.70;61.90;;;;;;4967918;28;44365;-77
2023/03/09 03:10:30;;;;;;;0.47;0.47;;;16.70;62.30;;;;;;4973767;28;43470;-78
2023/03/09 03:12:58;;;;;;;0.70;0.70;;;16.70;62.90;;;;;;4969190;28;43853;-75
2023/03/09 03:15:29;;;;;;;0.50;0.50;;;16.70;62.20;;;;;;4967529;28;45549;-77
2023/03/09 03:17:58;;;;;;;0.60;0.60;;;16.70;63.00;;;;;;4959788;28;44666;-76
2023/03/09 03:20:26;;;;;;;0.60;0.60;;;16.70;62.30;;;;;;4963164;28;43338;-78
2023/03/09 03:22:54;;;;;;;0.40;0.40;;;16.60;62.30;;;;;;4969020;28;43569;-76
2023/03/09 03:25:29;;;;;;;0.43;0.43;;;16.60;62.50;;;;;;4967883;28;43925;-75
2023/03/09 03:28:00;;;;;;;0.60;0.60;;;16.70;62.60;;;;;;4967542;28;44488;-77
2023/03/09 03:30:29;;;;;;;0.50;0.50;;;16.70;62.40;;;;;;4968519;28;43713;-77
2023/03/09 03:33:01;;;;;;;0.57;0.50;;;16.80;62.00;;;;;;4987301;28;43438;-78
2023/03/09 03:35:32;;;;;;;0.63;0.63;;;16.90;61.80;;;;;;4971662;28;46144;-76
2023/03/09 03:38:01;;;;;;;0.50;0.50;;;16.90;61.80;;;;;;4971364;28;45012;-77
2023/03/09 03:40:31;;;;;;;0.53;0.53;;;16.80;61.80;;;;;;4971747;28;43972;-78
2023/03/09 03:43:03;;;;;;;0.50;0.50;;;16.80;62.10;;;;;;4971247;28;43421;-78
2023/03/09 03:45:32;;;;;;;0.53;0.53;;;16.80;62.00;;;;;;4971291;28;45736;-79
2023/03/09 03:48:01;;;;;;;0.50;0.50;;;16.80;62.00;;;;;;4970642;28;44525;-78
2023/03/09 03:50:32;;;;;;;0.60;0.60;;;16.80;62.10;;;;;;4971982;28;44067;-78
2023/03/09 03:53:02;;;;;;;0.77;0.77;;;16.70;62.10;;;;;;4971877;28;43556;-78
2023/03/09 03:55:31;;;;;;;0.40;0.40;;;16.70;62.20;;;;;;4971249;28;46075;-79
2023/03/09 03:57:59;;;;;;;0.50;0.50;;;16.70;62.50;;;;;;4976520;28;44581;-79
2023/03/09 04:00:27;;;;;;;0.60;0.60;;;16.70;62.30;;;;;;4971947;28;43953;-76
2023/03/09 04:03:00;;;;;;;0.60;0.60;;;16.70;62.40;;;;;;4971649;28;43533;-78
2023/03/09 04:05:36;;;;;;;0.60;0.60;;;16.70;62.40;;;;;;4965210;28;45032;-77
2023/03/09 04:08:04;;;;;;;0.50;0.50;;;16.60;62.40;;;;;;4967038;28;44871;-76
2023/03/09 04:10:33;;;;;;;0.53;0.53;;;16.60;62.50;;;;;;4970826;28;43857;-76
2023/03/09 04:13:02;;;;;;;0.70;0.70;;;16.60;62.60;;;;;;4965539;28;43778;-78
2023/03/09 04:15:32;;;;;;;0.63;0.63;;;16.60;63.40;;;;;;4970349;28;45464;-77
2023/03/09 04:18:02;;;;;;;0.60;0.60;;;16.70;62.40;;;;;;4970670;28;43981;-79
2023/03/09 04:20:32;;;;;;;0.60;0.60;;;16.80;62.20;;;;;;4971084;28;43365;-76
2023/03/09 04:23:00;;;;;;;0.70;0.70;;;16.80;62.00;;;;;;4971025;28;43566;-78
2023/03/09 04:25:30;;;;;;;0.67;0.60;;;16.70;62.00;;;;;;4970960;28;45595;-78
2023/03/09 04:27:58;;;;;;;0.60;0.60;;;16.70;62.20;;;;;;4970105;28;44700;-76
2023/03/09 04:30:32;;;;;;;0.70;0.70;;;16.70;62.40;;;;;;4970684;28;43872;-77
2023/03/09 04:33:04;;;;;;;0.50;0.50;;;16.70;62.30;;;;;;4971156;28;43414;-78
2023/03/09 04:35:33;;;;;;;0.50;0.50;;;16.70;62.30;;;;;;4978396;28;45467;-78
2023/03/09 04:38:05;;;;;;;0.60;0.60;;;16.70;62.40;;;;;;4971288;28;44808;-75
2023/03/09 04:40:36;;;;;;;0.70;0.70;;;16.70;62.40;;;;;;4971181;28;43861;-78
2023/03/09 04:43:06;;;;;;;0.70;0.70;;;16.60;62.40;;;;;;4971092;28;43604;-79
2023/03/09 04:45:34;;;;;;;0.43;0.43;;;16.60;62.70;;;;;;4969988;28;45788;-77
2023/03/09 04:48:04;;;;;;;0.47;0.47;;;16.70;62.70;;;;;;4975462;28;44936;-78
2023/03/09 04:50:32;;;;;;;0.70;0.70;;;16.80;62.40;;;;;;4970207;28;44006;-78
2023/03/09 04:53:03;;;;;;;0.73;0.73;;;16.80;62.00;;;;;;4970738;28;43461;-78
2023/03/09 04:55:35;;;;;;;0.50;0.50;;;16.80;61.90;;;;;;4970611;28;44044;-78
2023/03/09 04:58:05;;;;;;;0.50;0.50;;;16.80;62.00;;;;;;4970416;28;43413;-77
2023/03/09 05:00:33;;;;;;;0.70;0.70;;;16.80;62.00;;;;;;4970642;28;43435;-77
2023/03/09 05:03:05;;;;;;;0.50;0.50;;;16.80;62.30;;;;;;4971059;28;43562;-77
2023/03/09 05:05:34;;;;;;;0.40;0.40;;;16.80;62.10;;;;;;4966738;28;46156;-78
2023/03/09 05:08:03;;;;;;;0.50;0.50;;;16.80;62.20;;;;;;4983553;28;43370;-75
2023/03/09 05:10:32;;;;;;;0.60;0.60;;;16.80;62.20;;;;;;4967907;28;43450;-80
2023/03/09 05:13:00;;;;;;;0.53;0.53;;;16.80;62.30;;;;;;4969020;28;43458;-79
2023/03/09 05:15:31;;;;;;;0.60;0.60;;;16.70;62.30;;;;;;4969746;28;44949;-79
2023/03/09 05:18:00;;;;;;;0.50;0.50;;;16.70;62.50;;;;;;4969476;28;43446;-77
2023/03/09 05:20:32;;;;;;;0.57;0.57;;;16.70;62.30;;;;;;4970315;28;43482;-77
2023/03/09 05:23:04;;;;;;;0.60;0.60;;;16.70;62.20;;;;;;4969386;28;43558;-78
2023/03/09 05:25:32;;;;;;;0.70;0.70;;;16.70;62.30;;;;;;4969811;28;45623;-79
2023/03/09 05:28:04;;;;;;;0.70;0.70;;;16.70;62.40;;;;;;4969742;28;43379;-78
2023/03/09 05:30:33;;;;;;;0.67;0.67;;;16.70;62.40;;;;;;4970312;28;43432;-77
2023/03/09 05:33:05;;;;;;;0.83;0.83;;;16.70;62.50;;;;;;4970212;28;43465;-79
2023/03/09 05:35:37;;;;;;;0.57;0.57;;;16.70;62.70;;;;;;4969308;28;45333;-79
2023/03/09 05:38:06;;;;;;;0.60;0.60;;;16.80;62.60;;;;;;4969339;28;44890;-79
2023/03/09 05:40:35;;;;;;;0.70;0.70;;;16.90;62.20;;;;;;4970321;28;43418;-77
2023/03/09 05:43:08;;;;;;;0.50;0.50;;;16.90;61.90;;;;;;4969791;28;44007;-79
2023/03/09 05:45:37;;;;;;;0.60;0.60;;;16.90;61.70;;;;;;4969616;28;46495;-79
2023/03/09 05:48:05;;;;;;;0.70;0.70;;;16.90;61.80;;;;;;4987026;28;43434;-76
2023/03/09 05:50:33;;;;;;;0.60;0.60;;;16.80;62.10;;;;;;4987165;28;43413;-75
2023/03/09 05:53:03;;;;;;;0.50;0.50;;;16.80;62.00;;;;;;4969902;28;44165;-77
2023/03/09 05:55:31;;;;;;;0.50;0.50;;;16.80;62.00;;;;;;4968868;28;45794;-77
2023/03/09 05:57:59;;;;;;;0.63;0.63;;;16.80;62.10;;;;;;4969204;28;44017;-79
2023/03/09 06:00:28;;;;;;;0.60;0.60;;;16.70;62.10;;;;;;4987311;28;43834;-71
2023/03/09 06:03:00;;;;;;;0.70;0.70;;;16.70;62.20;;;;;;4969224;28;44188;-77
2023/03/09 06:05:39;;;;;;;0.70;0.70;;;16.70;62.40;;;;;;4969142;28;45057;-78
2023/03/09 06:08:11;;;;;;;0.60;0.60;;;16.70;62.50;;;;;;4974985;28;44838;-79
2023/03/09 06:10:39;;;;;;;0.60;0.60;;;16.70;62.30;;;;;;4974585;28;43363;-76
2023/03/09 06:13:11;;;;;;;0.63;0.63;;;16.70;62.40;;;;;;4974093;28;43536;-79
2023/03/09 06:15:41;;;;;;;0.50;0.50;;;16.70;62.50;;;;;;4968994;28;45880;-77
2023/03/09 06:18:13;;;;;;;0.60;0.60;;;16.70;62.60;;;;;;4963450;28;44992;-78
2023/03/09 06:20:41;;;;;;;0.80;0.80;;;16.60;62.50;;;;;;4969007;28;43988;-78
2023/03/09 06:23:10;;;;;;;1.13;0.63;;;16.60;62.80;;;;;;4969083;28;44037;-77
2023/03/09 06:25:38;;;;;;;0.60;0.60;;;16.70;62.70;;;;;;4972419;28;45355;-78
2023/03/09 06:28:07;;;;;;;0.60;0.60;;;16.80;62.40;;;;;;4968507;28;44358;-76
2023/03/09 06:30:39;;;;;;;0.60;0.60;;;16.80;62.10;;;;;;4969669;28;43877;-79
2023/03/09 06:33:09;;;;;;;0.60;0.60;;;16.80;62.20;;;;;;4969848;28;43521;-79
2023/03/09 06:35:40;;;;;;;0.60;0.60;;;16.80;62.20;;;;;;4969304;28;45849;-77
2023/03/09 06:38:11;;;;;;;0.70;0.70;;;16.80;62.40;;;;;;4969261;28;45034;-78
2023/03/09 06:40:41;;;;;;;0.50;0.50;;;16.80;62.40;;;;;;4969574;28;43429;-79
2023/03/09 06:43:11;;;;;;;0.60;0.60;;;16.80;62.20;;;;;;4969415;28;43502;-79
2023/03/09 06:45:39;;;;;;;0.50;0.50;;;16.80;62.30;;;;;;4967230;28;43776;-79
2023/03/09 06:48:09;;;;;;;0.63;0.60;;;16.80;62.40;;;;;;4971889;28;45539;-77
2023/03/09 06:50:41;;;;;;;0.57;0.57;;;16.80;63.10;;;;;;4968871;28;43419;-78
2023/03/09 06:53:13;;;;;;;0.60;0.60;;;16.80;62.40;;;;;;4969569;28;43461;-79
2023/03/09 06:55:43;;;;;;;0.60;0.60;;;16.70;62.60;;;;;;4968872;28;44077;-76
2023/03/09 06:58:11;;;;;;;0.77;0.77;;;16.80;62.60;;;;;;4964365;28;44541;-78
2023/03/09 07:00:46;;;;;;;0.70;0.70;;;16.90;62.20;;;;;;4969008;28;43465;-77
2023/03/09 07:03:17;;;;;;;0.60;0.60;;;16.90;61.90;;;;;;4969621;28;43563;-78
2023/03/09 07:05:48;;;;;;;0.60;0.60;;;16.90;61.80;;;;;;4981527;28;43652;-78
2023/03/09 07:08:18;;;;;;;1.27;0.70;;;16.90;61.90;;;;;;4984288;28;44042;-78
2023/03/09 07:10:46;;;;;;;0.67;0.67;;;16.90;62.20;;;;;;4991751;28;43472;-77
2023/03/09 07:13:14;;;;;;;0.70;0.70;;;16.90;62.20;;;;;;4989998;28;43406;-79
2023/03/09 07:15:42;;;;;;;0.60;0.60;;;16.80;62.10;;;;;;4985241;28;43602;-78
2023/03/09 07:18:10;;;;;;;0.40;0.40;;;16.80;62.20;;;;;;4986772;28;43453;-76
2023/03/09 07:20:39;;;;;;;0.60;0.60;;;16.80;62.20;;;;;;4971766;28;43972;-78
2023/03/09 07:23:07;;;;;;;0.60;0.60;;;16.80;62.40;;;;;;4972488;28;43545;-79
2023/03/09 07:25:36;;;;;;;0.67;0.67;;;16.70;62.30;;;;;;4988133;28;44080;-77
2023/03/09 07:28:07;;;;;;;0.60;0.60;;;16.70;62.50;;;;;;4971130;28;44855;-76
2023/03/09 07:30:37;;;;;;;0.50;0.50;;;16.80;62.50;;;;;;4989592;28;43453;-76
2023/03/09 07:33:05;;;;;;;0.73;0.73;;;16.80;62.40;;;;;;4990046;28;43460;-78
2023/03/09 07:35:34;;;;;;;0.50;0.50;;;16.70;62.40;;;;;;4968241;28;45374;-76
2023/03/09 07:38:02;;;;;;;0.50;0.50;;;16.70;62.50;;;;;;4971088;28;44741;-78
2023/03/09 07:40:30;;;;;;;0.70;0.70;;;16.70;62.50;;;;;;4989632;28;43400;-79
2023/03/09 07:42:59;;;;;;;0.77;0.77;;;16.70;62.60;;;;;;4989114;28;43512;-72
2023/03/09 07:45:42;;;;;;;0.70;0.70;;;16.70;62.70;;;;;;4971294;28;44719;-80
2023/03/09 07:48:11;;;;;;;0.53;0.53;;;16.80;62.60;;;;;;4989105;28;43939;-80
2023/03/09 07:50:39;;;;;;;0.67;0.67;;;16.90;62.20;;;;;;4989032;28;43418;-77
2023/03/09 07:53:07;;;;;;;0.67;0.67;;;16.90;61.90;;;;;;4971954;28;43546;-78
2023/03/09 07:55:35;;;;;;;0.60;0.60;;;16.90;61.80;;;;;;4988835;28;44031;-79
2023/03/09 07:58:04;;;;;;;0.60;0.60;;;16.90;62.00;;;;;;4970468;28;43855;-79
2023/03/09 08:00:32;;;;;;;0.70;0.70;;;16.90;62.30;;;;;;4971796;28;43818;-79
2023/03/09 08:03:03;;;;;;;0.60;0.60;;;16.90;62.20;;;;;;4971851;28;43444;-78
2023/03/09 08:05:31;;;;;;;0.50;0.50;;;16.90;62.10;;;;;;4989026;28;43621;-78
2023/03/09 08:07:59;;;;;;;0.50;0.50;;;16.80;62.20;;;;;;4971001;28;44947;-75
2023/03/09 08:10:27;;;;;;;0.57;0.57;;;16.80;62.30;;;;;;4992350;28;43401;-79
2023/03/09 08:12:55;;;;;;;0.63;0.63;;;16.80;62.40;;;;;;4989526;28;43885;-77
2023/03/09 08:15:24;;;;;;;0.63;0.50;;;16.70;62.50;;;;;;4971281;28;46380;-79
2023/03/09 08:17:53;;;;;;;0.60;0.60;;;16.70;62.50;;;;;;4988660;28;43972;-79
2023/03/09 08:20:21;;;;;;;0.57;0.57;;;16.80;62.50;;;;;;4970981;28;43380;-77
2023/03/09 08:22:48;;;;;;;0.60;0.60;;;16.80;62.50;;;;;;4988989;28;43980;-79
2023/03/09 08:25:18;;;;;;;0.70;0.70;;;16.80;62.50;;;;;;4988548;28;43812;-77
2023/03/09 08:27:47;;;;;;;0.60;0.60;;;16.70;62.50;;;;;;4988496;28;43386;-76
2023/03/09 08:30:16;;;;;;;0.50;0.50;;;16.70;62.50;;;;;;4964625;28;43952;-79
2023/03/09 08:32:47;;;;;;;0.70;0.70;;;16.70;62.80;;;;;;4985262;28;43581;-77
2023/03/09 08:35:15;;;;;;;0.73;0.73;;;16.70;62.60;;;;;;4995033;28;43737;-77
2023/03/09 08:37:43;;;;;;;0.80;0.80;;;16.70;62.50;;;;;;4979254;28;44589;-77
2023/03/09 08:40:12;;;;;;;0.50;0.50;;;16.70;62.50;;;;;;4977735;28;44047;-79
2023/03/09 08:42:41;;;;;;;0.77;0.77;;;16.70;62.60;;;;;;4988549;28;43442;-78
2023/03/09 08:45:10;;;;;;;0.53;0.53;;;16.70;62.60;;;;;;4988537;28;43887;-77
2023/03/09 08:47:38;;;;;;;0.70;0.70;;;16.70;62.80;;;;;;4974176;28;44438;-79
2023/03/09 08:50:09;;;;;;;0.60;0.60;;;16.70;62.90;;;;;;4970304;28;43664;-77
2023/03/09 08:52:39;;;;;;;0.67;0.67;;;16.80;62.70;;;;;;4988367;28;43484;-77
2023/03/09 08:55:09;;;;;;;0.70;0.70;;;16.90;62.40;;;;;;4969868;28;45653;-79
2023/03/09 08:57:37;;;;;;;0.70;0.70;;;16.90;62.00;;;;;;4988237;28;43467;-76
2023/03/09 09:00:08;;;;;;;0.70;0.70;;;16.90;61.90;;;;;;4988457;28;43425;-77
2023/03/09 09:02:36;;;;;;;0.60;0.60;;;16.90;62.00;;;;;;4985672;28;43972;-77
2023/03/09 09:05:05;;;;;;;0.77;0.70;;;16.90;62.20;;;;;;4969383;28;45421;-79
2023/03/09 09:07:34;;;;;;;0.63;0.63;;;16.90;62.20;;;;;;4987437;28;44015;-79
2023/03/09 09:10:02;;;;;;;0.70;0.70;;;16.90;62.20;;;;;;4992870;28;43827;-78
2023/03/09 09:12:32;;;;;;;0.80;0.80;;;16.80;62.10;;;;;;4988027;28;43442;-80
2023/03/09 09:15:00;;;;;;;0.80;0.80;;;16.80;62.30;;;;;;4986867;28;44369;-75
2023/03/09 09:17:28;;;;;;;0.70;0.70;;;16.80;62.40;;;;;;4987380;28;43463;-74
2023/03/09 09:19:56;;;;;;;0.73;0.73;;;16.80;62.40;;;;;;4987586;28;43513;-78
2023/03/09 09:22:24;;;;;;;0.77;0.77;;;16.80;62.70;;;;;;4988112;28;43406;-80
2023/03/09 09:24:53;;;;;;;0.70;0.70;;;16.80;62.50;;;;;;4987544;28;43872;-75
2023/03/09 09:27:21;;;;;;;0.73;0.73;;;16.80;62.50;;;;;;4965783;28;44817;-78
2023/03/09 09:29:50;;;;;;;0.70;0.70;;;16.80;62.50;;;;;;4986725;28;44165;-79
2023/03/09 09:32:18;;;;;;;0.60;0.60;;;16.70;62.50;;;;;;4987332;28;44049;-78
2023/03/09 09:34:47;;;;;;;0.90;0.90;;;16.70;62.50;;;;;;4987606;28;44028;-78
2023/03/09 09:37:15;;;;;;;1.00;1.00;;;16.70;62.50;;;;;;4986690;28;44002;-78
2023/03/09 09:39:44;;;;;;;0.80;0.80;;;16.70;62.60;;;;;;4987002;28;43492;-77
2023/03/09 09:42:17;;;;;;;0.67;0.67;;;16.80;62.60;;;;;;4985958;28;44025;-76
2023/03/09 09:44:46;;;;;;;0.90;0.90;;;16.90;62.40;;;;;;4985481;28;43743;-76
2023/03/09 09:47:15;;;;;;;0.83;0.83;;;16.90;62.00;;;;;;4969635;28;45084;-77
2023/03/09 09:49:44;;;;;;;0.73;0.73;;;16.90;61.90;;;;;;4969987;28;43422;-75
2023/03/09 09:52:18;;;;;;;0.70;0.70;;;16.90;62.10;;;;;;4984339;28;44114;-75
2023/03/09 09:54:50;;;;;;;0.87;0.87;;;16.80;62.30;;;;;;4990039;28;43601;-78
2023/03/09 09:57:21;;;;;;;0.80;0.80;;;16.80;62.20;;;;;;4987355;28;43339;-76
2023/03/09 09:59:53;;;;;;;0.73;0.73;;;16.80;62.00;;;;;;4982334;28;43406;-78
2023/03/09 10:02:32;;;;;;;0.60;0.60;;;16.80;62.10;;;;;;4970103;28;43917;-79
2023/03/09 10:05:04;;;;;;;0.90;0.90;;;16.80;62.30;;;;;;4969328;28;46003;-75
2023/03/09 10:07:32;;;;;;;1.00;1.00;;;16.80;62.40;;;;;;4969451;28;45454;-79
2023/03/09 10:10:01;;;;;;;0.80;0.80;;;16.70;62.50;;;;;;4986868;28;43511;-77
2023/03/09 10:12:31;;;;;;;1.07;1.07;;;16.70;62.50;;;;;;4969819;28;43525;-75
2023/03/09 10:15:03;;;;;;;0.80;0.80;;;16.80;62.30;;;;;;4967281;28;45327;-75
2023/03/09 10:17:33;;;;;;;0.90;0.90;;;16.70;62.40;;;;;;4986568;28;43566;-77
2023/03/09 10:20:10;;;;;;;0.70;0.70;;;16.70;62.50;;;;;;4969618;28;43514;-79
2023/03/09 10:22:37;;;;;;;0.80;0.80;;;16.70;62.50;;;;;;4974478;28;43904;-78
2023/03/09 10:25:10;;;;;;;0.70;0.70;;;16.70;62.70;;;;;;4968656;28;45926;-77
2023/03/09 10:27:42;;;;;;;1.60;1.10;;;16.70;63.00;;;;;;4969330;28;44768;-79
2023/03/09 10:30:16;;;;;;;0.83;0.80;;;16.80;62.70;;;;;;4986839;28;43407;-79
2023/03/09 10:32:50;;;;;;;1.00;1.00;;;16.90;62.40;;;;;;4963712;28;43530;-78
2023/03/09 10:35:21;;;;;;;1.00;1.00;;;16.90;62.00;;;;;;4971351;28;45709;-79
2023/03/09 10:37:50;;;;;;;0.80;0.80;;;16.90;61.80;;;;;;4968857;28;44761;-78
2023/03/09 10:40:19;;;;;;;1.03;1.03;;;16.90;62.00;;;;;;4986748;28;43491;-78
2023/03/09 10:42:49;;;;;;;0.90;0.90;;;16.90;62.40;;;;;;4986509;28;44730;-79
2023/03/09 10:45:22;;;;;;;0.80;0.80;;;16.90;62.30;;;;;;4969113;28;45950;-79
2023/03/09 10:47:55;;;;;;;0.80;0.80;;;16.90;62.20;;;;;;4986193;28;44065;-78
2023/03/09 10:50:25;;;;;;;0.70;0.70;;;16.80;62.20;;;;;;4968918;28;43411;-77
2023/03/09 10:52:53;;;;;;;0.90;0.90;;;16.80;62.30;;;;;;4986811;28;43568;-77
2023/03/09 10:55:36;;;;;;;0.80;0.80;;;16.80;62.50;;;;;;4968551;28;45794;-77
2023/03/09 10:58:16;;;;;;;0.80;0.80;;;16.80;62.50;;;;;;4969570;28;44967;-77
2023/03/09 11:00:53;;;;;;;0.97;0.97;;;16.80;62.70;;;;;;4967579;28;43843;-78
2023/03/09 11:03:21;;;;;;;0.50;0.50;;;16.70;62.40;;;;;;4969237;28;43522;-76
2023/03/09 11:05:49;;;;;;;0.80;0.80;;;16.80;62.60;;;;;;4982665;28;43602;-78
2023/03/09 11:08:23;;;;;;;0.93;0.93;;;16.80;62.70;;;;;;4982522;28;44055;-78
2023/03/09 11:11:01;;;;;;;1.00;1.00;;;16.70;62.60;;;;;;4989810;28;43386;-77
2023/03/09 11:13:30;;;;;;;0.87;0.87;;;16.70;62.60;;;;;;4986621;28;43468;-74
2023/03/09 11:16:06;;;;;;;1.00;1.00;;;16.70;62.90;;;;;;4966405;28;45698;-79
2023/03/09 11:18:34;;;;;;;0.60;0.60;;;16.80;62.80;;;;;;4967704;28;45798;-77
2023/03/09 11:21:02;;;;;;;0.90;0.90;;;16.90;62.50;;;;;;4986394;28;43377;-77
2023/03/09 11:23:31;;;;;;;0.83;0.83;;;16.90;62.20;;;;;;4986636;28;43445;-77
2023/03/09 11:26:09;;;;;;;0.90;0.90;;;16.90;62.20;;;;;;4968232;28;45577;-74
2023/03/09 11:28:57;;;;;;;1.20;1.20;;;16.80;62.20;;;;;;4964551;28;44919;-77
2023/03/09 11:31:27;;;;;;;1.00;1.00;;;16.80;62.60;;;;;;4968352;28;44151;-78
2023/03/09 11:33:57;;;;;;;1.00;1.00;;;16.80;62.50;;;;;;4968770;28;43432;-77
2023/03/09 11:36:27;;;;;;;0.80;0.80;;;16.80;62.40;;;;;;4968597;28;44392;-79
2023/03/09 11:38:55;;;;;;;1.33;1.07;;;16.80;62.40;;;;;;4985780;28;43415;-77
2023/03/09 11:41:25;;;;;;;0.87;0.87;;;16.80;62.50;;;;;;4967867;28;43981;-76
2023/03/09 11:43:56;;;;;;;1.20;1.20;;;16.80;62.70;;;;;;4986438;28;43472;-77
2023/03/09 11:46:24;;;;;;;0.80;0.80;;;16.80;62.70;;;;;;4968663;28;45684;-77
2023/03/09 11:48:53;;;;;;;1.00;1.00;;;16.80;62.90;;;;;;4969786;28;45678;-79
2023/03/09 11:51:24;;;;;;;0.70;0.70;;;16.80;62.60;;;;;;4967661;28;43363;-78
2023/03/09 11:53:56;;;;;;;0.90;0.90;;;16.80;62.70;;;;;;4987269;28;43447;-77
2023/03/09 11:56:28;;;;;;;0.97;0.97;;;16.80;62.70;;;;;;4988138;28;43817;-77
2023/03/09 11:59:00;;;;;;;0.87;0.87;;;16.70;62.70;;;;;;4971734;28;43441;-77
2023/03/09 12:01:30;;;;;;;1.10;1.10;;;16.70;62.70;;;;;;4989416;28;43494;-78
2023/03/09 12:04:00;;;;;;;1.03;1.03;;;16.70;63.10;;;;;;4970318;28;43418;-74
2023/03/09 12:06:37;;;;;;;1.00;1.00;;;16.80;63.00;;;;;;4989198;28;43848;-78
2023/03/09 12:09:07;;;;;;;1.40;1.30;;;16.90;62.70;;;;;;4970716;28;44371;-77
2023/03/09 12:11:37;;;;;;;1.13;1.13;;;17.00;62.40;;;;;;4993477;28;43366;-78
2023/03/09 12:14:10;;;;;;;1.00;1.00;;;17.00;62.00;;;;;;4971412;28;43450;-78
2023/03/09 12:16:39;;;;;;;0.90;0.90;;;17.00;62.00;;;;;;4988840;28;44628;-79
2023/03/09 12:19:13;;;;;;;1.13;1.13;;;17.00;62.20;;;;;;4985350;28;44045;-77
2023/03/09 12:21:41;;;;;;;1.00;1.00;;;16.90;62.40;;;;;;4971207;28;43758;-77
2023/03/09 12:24:25;;;;;;;1.10;1.10;;;16.90;62.20;;;;;;4989077;28;43793;-79
2023/03/09 12:26:58;;;;;;;1.00;1.00;;;16.90;62.20;;;;;;4970907;28;45669;-76
2023/03/09 12:29:30;;;;;;;0.90;0.90;;;16.90;62.40;;;;;;4988613;28;43406;-79
2023/03/09 12:32:38;;;;;;;0.90;0.90;;;16.80;62.40;;;;;;4965728;28;43443;-76
2023/03/09 12:35:42;;;;;;;0.90;0.90;;;16.80;62.60;;;;;;4974270;28;43636;-79
2023/03/09 12:38:21;;;;;;;1.20;1.20;;;16.80;62.90;;;;;;4968460;28;45939;-79
2023/03/09 12:40:50;;;;;;;1.03;1.03;;;16.80;62.60;;;;;;4970525;28;43930;-77
2023/03/09 12:43:51;;;;;;;1.67;1.30;;;16.80;62.60;;;;;;4970419;28;43377;-78
2023/03/09 12:46:51;;;;;;;1.20;1.10;;;16.80;63.40;;;;;;4970145;28;43419;-79
2023/03/09 12:49:23;;;;;;;2.40;1.33;;;16.70;62.70;;;;;;4985707;28;43594;-78
2023/03/09 12:52:26;;;;;;;3.97;1.20;;;16.70;62.70;;;;;;4970410;28;45123;-78
2023/03/09 12:54:58;;;;;;;4.30;1.30;;;16.80;63.20;;;;;;4986724;28;43381;-77
2023/03/09 12:57:26;;;;;;;2.77;1.20;;;16.80;62.90;;;;;;4988670;28;43511;-78
2023/03/09 12:59:54;;;;;;;2.40;1.40;;;16.90;62.50;;;;;;4970426;28;43856;-77
2023/03/09 13:02:32;;;;;;;1.77;1.00;;;17.00;62.30;;;;;;4970556;28;44721;-78
2023/03/09 13:05:24;;;;;;;1.17;1.10;;;16.90;62.20;;;;;;4968919;28;43488;-77